createdAt,value
2022-10-29T00:01:16.611Z,20.98
2022-10-29T00:03:47.241Z,20.40
2022-10-29T00:06:15.974Z,25.63
2022-10-29T00:08:44.396Z,23.20
2022-10-29T00:11:15.674Z,22.90
2022-10-29T00:13:45.061Z,22.38
2022-10-29T00:16:17.212Z,23.13
2022-10-29T00:18:46.013Z,25.58
2022-10-29T00:21:17.479Z,25.23
2022-10-29T00:23:45.828Z,23.65
2022-10-29T00:26:14.747Z,26.20
2022-10-29T00:28:43.958Z,25.10
2022-10-29T00:31:18.840Z,31.60
2022-10-29T00:33:47.844Z,25.90
2022-10-29T00:36:18.413Z,25.60
2022-10-29T00:38:46.959Z,27.38
2022-10-29T00:41:18.381Z,28.90
2022-10-29T00:43:50.788Z,26.60
2022-10-29T00:46:28.172Z,26.95
2022-10-29T00:48:57.830Z,27.05
2022-10-29T00:51:28.582Z,25.75
2022-10-29T00:54:02.670Z,29.50
2022-10-29T00:56:35.489Z,32.45
2022-10-29T00:59:04.353Z,29.90
2022-10-29T01:01:34.085Z,28.90
2022-10-29T01:04:03.116Z,32.30
2022-10-29T01:06:32.688Z,23.02
2022-10-29T01:09:00.973Z,24.10
2022-10-29T01:11:44.945Z,24.80
2022-10-29T01:14:24.400Z,20.00
2022-10-29T01:17:01.335Z,23.55
2022-10-29T01:20:02.200Z,20.73
2022-10-29T01:25:51.619Z,23.95
2022-10-29T01:28:34.754Z,21.05
2022-10-29T01:31:19.234Z,22.83
2022-10-29T01:33:56.506Z,20.58
2022-10-29T01:36:34.853Z,26.85
2022-10-29T01:39:10.639Z,19.52
2022-10-29T01:41:50.607Z,26.50
2022-10-29T01:44:31.287Z,26.05
2022-10-29T01:52:04.789Z,21.90
2022-10-29T01:54:33.174Z,21.98
2022-10-29T01:57:02.164Z,23.95
2022-10-29T01:59:51.304Z,23.85
2022-10-29T02:02:32.114Z,18.98
2022-10-29T02:05:13.444Z,24.77
2022-10-29T02:07:50.953Z,28.00
2022-10-29T02:10:28.829Z,20.40
2022-10-29T02:12:58.842Z,22.05
2022-10-29T02:15:32.997Z,21.83
2022-10-29T02:18:05.325Z,19.40
2022-10-29T02:20:34.172Z,19.92
2022-10-29T02:23:02.552Z,21.73
2022-10-29T02:25:30.861Z,21.98
2022-10-29T02:28:00.560Z,16.13
2022-10-29T02:30:28.854Z,19.73
2022-10-29T02:32:57.425Z,22.88
2022-10-29T02:35:27.364Z,25.00
2022-10-29T02:37:55.599Z,21.48
2022-10-29T02:40:23.820Z,23.58
2022-10-29T02:42:52.066Z,20.95
2022-10-29T02:45:20.305Z,20.08
2022-10-29T02:47:48.575Z,23.05
2022-10-29T02:50:17.008Z,24.13
2022-10-29T02:52:46.643Z,23.60
2022-10-29T02:55:15.053Z,25.45
2022-10-29T02:57:44.760Z,21.00
2022-10-29T03:00:15.067Z,25.73
2022-10-29T03:02:43.353Z,19.48
2022-10-29T03:05:12.178Z,23.10
2022-10-29T03:07:40.443Z,21.80
2022-10-29T03:10:11.208Z,24.20
2022-10-29T03:15:09.019Z,20.33
2022-10-29T03:17:37.319Z,20.30
2022-10-29T03:20:07.322Z,24.23
2022-10-29T03:22:37.720Z,21.02
2022-10-29T03:25:07.097Z,22.90
2022-10-29T03:27:42.801Z,17.55
2022-10-29T03:30:13.485Z,19.83
2022-10-29T03:35:11.450Z,22.58
2022-10-29T03:37:39.852Z,23.37
2022-10-29T03:40:10.189Z,17.35
2022-10-29T03:42:40.807Z,24.98
2022-10-29T03:45:11.798Z,23.40
2022-10-29T03:47:40.084Z,20.23
2022-10-29T03:50:10.118Z,22.80
2022-10-29T03:52:38.473Z,22.52
2022-10-29T03:55:08.573Z,24.98
2022-10-29T03:57:37.029Z,21.63
2022-10-29T04:00:08.235Z,22.65
2022-10-29T04:02:42.281Z,17.33
2022-10-29T04:05:10.859Z,23.80
2022-10-29T04:07:39.133Z,19.58
2022-10-29T04:10:08.268Z,21.27
2022-10-29T04:12:36.481Z,18.65
2022-10-29T04:15:07.503Z,21.60
2022-10-29T04:17:35.860Z,17.88
2022-10-29T04:20:09.962Z,22.77
2022-10-29T04:27:44.771Z,20.83
2022-10-29T04:28:44.488Z,28.50
2022-10-29T04:31:14.373Z,19.73
2022-10-29T04:33:42.737Z,18.60
2022-10-29T04:36:11.789Z,21.33
2022-10-29T04:38:40.039Z,22.45
2022-10-29T04:41:08.348Z,24.05
2022-10-29T04:43:36.591Z,19.88
2022-10-29T04:46:05.157Z,23.92
2022-10-29T04:48:34.847Z,19.65
2022-10-29T04:51:03.277Z,26.33
2022-10-29T04:53:31.574Z,24.30
2022-10-29T04:56:02.182Z,22.80
2022-10-29T05:01:02.895Z,28.63
2022-10-29T05:03:31.418Z,23.42
2022-10-29T05:06:04.307Z,22.92
2022-10-29T05:08:33.186Z,21.77
2022-10-29T05:11:04.024Z,18.83
2022-10-29T05:13:32.416Z,21.77
2022-10-29T05:16:01.265Z,28.15
2022-10-29T05:18:29.725Z,19.30
2022-10-29T05:21:00.154Z,19.00
2022-10-29T05:23:28.531Z,19.00
2022-10-29T05:25:57.348Z,22.60
2022-10-29T05:28:25.950Z,18.42
2022-10-29T05:30:55.092Z,22.60
2022-10-29T05:33:25.918Z,22.63
2022-10-29T05:35:54.277Z,20.33
2022-10-29T05:38:24.058Z,19.33
2022-10-29T05:40:52.271Z,18.43
2022-10-29T05:43:20.543Z,17.65
2022-10-29T05:45:48.814Z,25.00
2022-10-29T05:48:17.066Z,21.67
2022-10-29T05:50:45.726Z,22.77
2022-10-29T05:53:15.740Z,22.35
2022-10-29T05:55:45.397Z,23.00
2022-10-29T05:58:15.421Z,22.17
2022-10-29T06:00:46.434Z,20.17
2022-10-29T06:03:16.880Z,22.65
2022-10-29T06:05:45.803Z,22.83
2022-10-29T06:08:14.179Z,23.13
2022-10-29T06:10:44.068Z,23.55
2022-10-29T06:13:13.557Z,23.20
2022-10-29T06:15:42.161Z,21.38
2022-10-29T06:18:11.318Z,23.35
2022-10-29T06:20:40.451Z,21.65
2022-10-29T06:23:08.998Z,25.80
2022-10-29T06:25:37.366Z,21.25
2022-10-29T06:28:09.097Z,26.20
2022-10-29T06:30:38.262Z,21.25
2022-10-29T06:33:07.012Z,27.58
2022-10-29T06:38:11.087Z,22.77
2022-10-29T06:40:41.054Z,19.48
2022-10-29T06:43:13.069Z,25.92
2022-10-29T06:45:41.457Z,25.00
2022-10-29T06:48:11.560Z,25.20
2022-10-29T06:50:39.813Z,23.27
2022-10-29T06:53:12.606Z,23.33
2022-10-29T06:55:41.506Z,23.63
2022-10-29T06:58:13.977Z,25.48
2022-10-29T07:00:43.103Z,25.55
2022-10-29T07:03:14.490Z,28.90
2022-10-29T07:05:42.869Z,23.30
2022-10-29T07:08:11.928Z,22.80
2022-10-29T07:10:40.856Z,29.52
2022-10-29T07:13:11.620Z,26.77
2022-10-29T07:15:39.884Z,31.05
2022-10-29T07:18:09.695Z,24.17
2022-10-29T07:20:41.014Z,36.78
2022-10-29T07:23:10.109Z,28.35
2022-10-29T07:25:39.897Z,28.27
2022-10-29T07:28:13.050Z,30.17
2022-10-29T07:30:41.609Z,34.55
2022-10-29T07:33:09.949Z,32.40
2022-10-29T07:35:38.566Z,29.85
2022-10-29T07:38:10.883Z,37.35
2022-10-29T07:40:41.109Z,39.30
2022-10-29T07:43:10.839Z,38.88
2022-10-29T07:45:39.080Z,40.50
2022-10-29T07:48:08.810Z,38.42
2022-10-29T07:50:38.539Z,34.90
2022-10-29T07:53:08.128Z,31.93
2022-10-29T07:55:37.015Z,33.00
2022-10-29T07:58:07.545Z,34.13
2022-10-29T08:00:39.174Z,36.53
2022-10-29T08:03:08.331Z,36.35
2022-10-29T08:05:36.712Z,32.67
2022-10-29T08:08:05.608Z,37.80
2022-10-29T08:10:36.008Z,34.25
2022-10-29T08:13:06.349Z,35.63
2022-10-29T08:15:36.972Z,38.03
2022-10-29T08:18:13.038Z,30.15
2022-10-29T08:20:41.419Z,34.15
2022-10-29T08:23:10.008Z,34.08
2022-10-29T08:25:41.552Z,31.13
2022-10-29T08:28:12.498Z,33.67
2022-10-29T08:30:44.023Z,35.47
2022-10-29T08:33:12.822Z,35.00
2022-10-29T08:35:41.104Z,39.38
2022-10-29T08:38:09.392Z,37.40
2022-10-29T08:40:51.591Z,34.70
2022-10-29T08:44:04.300Z,33.58
2022-10-29T08:46:45.403Z,35.33
2022-10-29T08:49:19.780Z,32.53
2022-10-29T08:51:55.455Z,36.13
2022-10-29T08:54:30.937Z,42.58
2022-10-29T08:57:05.695Z,32.45
2022-10-29T08:59:42.135Z,45.33
2022-10-29T09:02:18.427Z,39.55
2022-10-29T09:04:46.922Z,42.58
2022-10-29T09:07:38.757Z,37.30
2022-10-29T09:10:13.804Z,33.78
2022-10-29T09:13:02.602Z,43.33
2022-10-29T09:15:56.383Z,38.05
2022-10-29T09:18:48.825Z,38.25
2022-10-29T09:21:29.526Z,36.15
2022-10-29T09:26:58.613Z,39.15
2022-10-29T09:29:52.809Z,36.45
2022-10-29T09:32:26.155Z,30.98
2022-10-29T09:35:02.464Z,30.92
2022-10-29T09:37:42.555Z,28.45
2022-10-29T09:40:25.727Z,33.00
2022-10-29T09:42:55.314Z,33.72
2022-10-29T09:45:33.404Z,35.75
2022-10-29T09:48:12.526Z,34.05
2022-10-29T09:50:53.821Z,32.55
2022-10-29T09:53:22.245Z,28.38
2022-10-29T09:55:53.629Z,30.13
2022-10-29T09:58:24.335Z,29.10
2022-10-29T10:03:27.880Z,32.65
2022-10-29T10:06:06.847Z,25.83
2022-10-29T10:08:37.320Z,26.73
2022-10-29T10:11:08.067Z,33.53
2022-10-29T10:16:08.062Z,29.00
2022-10-29T10:23:57.638Z,28.05
2022-10-29T10:26:39.435Z,26.98
2022-10-29T10:29:15.091Z,29.10
2022-10-29T10:31:45.381Z,26.55
2022-10-29T10:34:20.662Z,24.02
2022-10-29T10:36:56.420Z,32.55
2022-10-29T10:39:29.356Z,26.35
2022-10-29T10:42:00.275Z,27.15
2022-10-29T10:44:29.578Z,25.63
2022-10-29T10:47:06.595Z,23.33
2022-10-29T10:49:37.449Z,26.83
2022-10-29T10:52:19.847Z,31.58
2022-10-29T10:54:56.542Z,29.58
2022-10-29T10:57:29.381Z,23.27
2022-10-29T11:00:07.941Z,23.52
2022-10-29T11:02:49.410Z,22.67
2022-10-29T11:05:20.673Z,29.23
2022-10-29T11:08:00.329Z,26.48
2022-10-29T11:10:35.974Z,24.43
2022-10-29T11:13:11.130Z,27.05
2022-10-29T11:15:45.514Z,25.92
2022-10-29T11:18:19.993Z,27.90
2022-10-29T11:21:05.391Z,22.60
2022-10-29T11:23:49.430Z,28.63
2022-10-29T11:26:26.615Z,26.08
2022-10-29T11:29:01.663Z,20.98
2022-10-29T11:31:41.304Z,18.80
2022-10-29T11:34:18.169Z,22.63
2022-10-29T11:36:53.443Z,27.70
2022-10-29T11:39:32.090Z,24.95
2022-10-29T11:42:02.400Z,26.42
2022-10-29T11:44:38.522Z,24.17
2022-10-29T11:47:41.526Z,24.88
2022-10-29T11:50:27.246Z,22.90
2022-10-29T11:53:03.572Z,22.10
2022-10-29T11:55:43.354Z,24.52
2022-10-29T11:58:18.769Z,24.17
2022-10-29T12:00:58.860Z,22.48
2022-10-29T12:03:46.890Z,29.23
2022-10-29T12:06:24.146Z,23.83
2022-10-29T12:09:04.877Z,25.52
2022-10-29T12:11:43.537Z,24.63
2022-10-29T12:14:26.314Z,25.67
2022-10-29T12:17:03.674Z,22.90
2022-10-29T12:19:46.593Z,23.48
2022-10-29T12:22:29.759Z,25.60
2022-10-29T12:25:20.335Z,28.70
2022-10-29T12:28:03.925Z,22.38
2022-10-29T12:30:38.732Z,16.83
2022-10-29T12:33:16.854Z,22.48
2022-10-29T12:35:55.556Z,23.80
2022-10-29T12:38:37.811Z,22.73
2022-10-29T12:41:11.025Z,24.73
2022-10-29T12:43:41.561Z,25.77
2022-10-29T12:46:21.615Z,24.65
2022-10-29T12:49:02.268Z,23.23
2022-10-29T12:51:42.676Z,23.40
2022-10-29T12:54:23.417Z,24.90
2022-10-29T12:59:36.601Z,22.63
2022-10-29T13:02:47.121Z,23.25
2022-10-29T13:05:40.465Z,21.00
2022-10-29T13:08:35.087Z,25.45
2022-10-29T13:11:03.775Z,22.00
2022-10-29T13:14:00.497Z,22.38
2022-10-29T13:16:33.110Z,22.67
2022-10-29T13:19:25.120Z,20.63
2022-10-29T13:22:05.577Z,27.23
2022-10-29T13:24:34.181Z,23.55
2022-10-29T13:27:09.613Z,22.17
2022-10-29T13:29:49.430Z,20.67
2022-10-29T13:32:39.535Z,20.70
2022-10-29T13:35:42.370Z,23.38
2022-10-29T13:38:17.107Z,31.60
2022-10-29T13:41:13.154Z,21.55
2022-10-29T13:43:44.918Z,19.35
2022-10-29T13:46:45.532Z,28.63
2022-10-29T13:49:20.603Z,16.95
2022-10-29T13:51:59.156Z,24.27
2022-10-29T13:54:39.711Z,18.23
2022-10-29T13:57:19.759Z,21.63
2022-10-29T13:59:55.323Z,23.13
2022-10-29T14:02:36.747Z,26.83
2022-10-29T14:05:15.483Z,23.02
2022-10-29T14:07:56.260Z,21.17
2022-10-29T14:10:28.110Z,19.42
2022-10-29T14:13:01.905Z,21.90
2022-10-29T14:15:30.273Z,24.20
2022-10-29T14:17:58.517Z,20.58
2022-10-29T14:20:29.811Z,21.80
2022-10-29T14:23:09.143Z,18.88
2022-10-29T14:25:37.885Z,23.65
2022-10-29T14:28:19.141Z,24.15
2022-10-29T14:30:49.513Z,23.48
2022-10-29T14:33:26.476Z,23.00
2022-10-29T14:36:01.990Z,26.73
2022-10-29T14:38:39.517Z,23.42
2022-10-29T14:41:07.873Z,24.48
2022-10-29T14:43:36.764Z,26.33
2022-10-29T14:46:23.560Z,30.17
2022-10-29T14:49:14.028Z,23.00
2022-10-29T14:51:52.370Z,21.90
2022-10-29T14:54:26.723Z,22.00
2022-10-29T14:56:59.394Z,23.63
2022-10-29T14:59:31.144Z,19.15
2022-10-29T15:02:17.265Z,23.02
2022-10-29T15:04:56.123Z,24.60
2022-10-29T15:07:34.657Z,25.35
2022-10-29T15:10:26.402Z,23.13
2022-10-29T15:12:55.373Z,17.90
2022-10-29T15:15:28.269Z,17.67
2022-10-29T15:18:01.737Z,21.75
2022-10-29T15:20:36.990Z,23.73
2022-10-29T15:23:05.899Z,27.08
2022-10-29T15:25:39.282Z,22.60
2022-10-29T15:28:11.942Z,23.58
2022-10-29T15:30:41.218Z,17.85
2022-10-29T15:33:19.161Z,20.85
2022-10-29T15:35:53.668Z,24.58
2022-10-29T15:39:12.929Z,21.50
2022-10-29T15:41:49.255Z,23.23
2022-10-29T15:44:37.142Z,19.80
2022-10-29T15:47:22.382Z,21.83
2022-10-29T15:49:50.720Z,22.15
2022-10-29T15:52:20.285Z,29.83
2022-10-29T15:54:49.069Z,16.70
2022-10-29T15:57:18.917Z,19.55
2022-10-29T15:59:47.240Z,29.33
2022-10-29T16:02:18.519Z,18.92
2022-10-29T16:04:47.038Z,28.20
2022-10-29T16:07:15.803Z,19.20
2022-10-29T16:09:47.896Z,25.45
2022-10-29T16:12:17.782Z,25.95
2022-10-29T16:14:46.271Z,27.67
2022-10-29T16:17:16.676Z,21.70
2022-10-29T16:19:45.281Z,23.92
2022-10-29T16:22:16.550Z,20.77
2022-10-29T16:24:44.871Z,24.63
2022-10-29T16:27:18.824Z,20.30
2022-10-29T16:29:49.581Z,20.92
2022-10-29T16:32:20.831Z,19.48
2022-10-29T16:34:49.291Z,19.92
2022-10-29T16:37:20.364Z,17.92
2022-10-29T16:39:48.745Z,26.52
2022-10-29T16:42:30.386Z,20.73
2022-10-29T16:44:59.042Z,23.55
2022-10-29T16:47:27.488Z,21.13
2022-10-29T16:49:56.201Z,22.60
2022-10-29T16:52:28.846Z,29.02
2022-10-29T16:54:58.101Z,21.33
2022-10-29T16:57:29.425Z,20.48
2022-10-29T16:59:57.714Z,19.83
2022-10-29T17:02:26.095Z,21.27
2022-10-29T17:04:54.442Z,21.52
2022-10-29T17:07:22.746Z,20.70
2022-10-29T17:09:51.130Z,19.88
2022-10-29T17:12:19.470Z,21.75
2022-10-29T17:14:49.340Z,21.23
2022-10-29T17:17:17.656Z,22.65
2022-10-29T17:19:45.905Z,26.20
2022-10-29T17:22:16.161Z,22.35
2022-10-29T17:24:45.137Z,20.92
2022-10-29T17:27:13.865Z,29.20
2022-10-29T17:29:42.213Z,22.40
2022-10-29T17:32:11.887Z,22.10
2022-10-29T17:34:40.262Z,18.83
2022-10-29T17:37:09.180Z,24.20
2022-10-29T17:39:37.602Z,20.55
2022-10-29T17:42:06.369Z,19.42
2022-10-29T17:44:36.195Z,20.25
2022-10-29T17:47:04.527Z,20.90
2022-10-29T17:49:34.189Z,27.60
2022-10-29T17:52:02.523Z,22.73
2022-10-29T17:54:31.774Z,19.58
2022-10-29T17:57:02.214Z,19.65
2022-10-29T17:59:30.482Z,21.20
2022-10-29T18:01:58.947Z,21.65
2022-10-29T18:04:27.602Z,20.88
2022-10-29T18:06:57.383Z,26.30
2022-10-29T18:09:25.690Z,20.10
2022-10-29T18:11:54.023Z,21.58
2022-10-29T18:14:22.301Z,16.77
2022-10-29T18:16:50.874Z,19.20
2022-10-29T18:19:19.212Z,20.70
2022-10-29T18:21:47.805Z,18.30
2022-10-29T18:24:19.357Z,20.00
2022-10-29T18:26:51.108Z,20.95
2022-10-29T18:29:19.647Z,23.40
2022-10-29T18:31:48.208Z,20.33
2022-10-29T18:34:17.058Z,21.00
2022-10-29T18:36:47.451Z,21.17
2022-10-29T18:39:17.267Z,20.10
2022-10-29T18:41:45.481Z,18.93
2022-10-29T18:44:13.762Z,20.85
2022-10-29T18:46:42.108Z,22.95
2022-10-29T18:49:13.019Z,20.05
2022-10-29T18:51:41.605Z,25.17
2022-10-29T18:54:12.774Z,21.65
2022-10-29T18:56:42.655Z,21.88
2022-10-29T18:59:12.774Z,21.50
2022-10-29T19:01:41.942Z,22.15
2022-10-29T19:04:15.353Z,17.95
2022-10-29T19:06:44.190Z,19.40
2022-10-29T19:09:13.396Z,18.75
2022-10-29T19:11:43.065Z,26.63
2022-10-29T19:14:14.731Z,24.40
2022-10-29T19:16:43.073Z,17.02
2022-10-29T19:19:13.402Z,19.70
2022-10-29T19:21:43.248Z,17.27
2022-10-29T19:24:15.222Z,15.52
2022-10-29T19:26:45.437Z,22.15
2022-10-29T19:29:14.471Z,19.20
2022-10-29T19:31:45.789Z,22.65
2022-10-29T19:34:14.263Z,16.88
2022-10-29T19:36:42.604Z,27.83
2022-10-29T19:39:10.908Z,19.42
2022-10-29T19:41:39.205Z,18.77
2022-10-29T19:44:08.961Z,21.13
2022-10-29T19:46:37.373Z,20.27
2022-10-29T19:49:05.690Z,19.40
2022-10-29T19:51:34.051Z,18.40
2022-10-29T19:54:04.085Z,22.52
2022-10-29T19:56:32.504Z,17.98
2022-10-29T19:59:00.914Z,16.38
2022-10-29T20:01:30.727Z,24.95
2022-10-29T20:03:59.656Z,22.98
2022-10-29T20:06:28.098Z,19.48
2022-10-29T20:08:56.510Z,16.98
2022-10-29T20:11:24.831Z,21.85
2022-10-29T20:13:53.230Z,21.13
2022-10-29T20:16:22.644Z,22.05
2022-10-29T20:18:52.924Z,23.90
2022-10-29T20:21:21.278Z,24.58
2022-10-29T20:23:49.565Z,17.50
2022-10-29T20:26:17.925Z,22.25
2022-10-29T20:28:46.184Z,21.48
2022-10-29T20:31:29.761Z,23.50
2022-10-29T20:34:01.923Z,19.00
2022-10-29T20:36:32.474Z,20.08
2022-10-29T20:41:30.277Z,20.10
2022-10-29T20:44:01.200Z,23.05
2022-10-29T20:46:29.885Z,19.20
2022-10-29T20:49:00.169Z,21.52
2022-10-29T20:51:30.280Z,20.90
2022-10-29T20:53:58.582Z,24.67
2022-10-29T20:56:28.683Z,22.63
2022-10-29T20:58:57.083Z,25.33
2022-10-29T21:01:25.870Z,21.55
2022-10-29T21:03:54.440Z,23.60
2022-10-29T21:06:24.457Z,25.40
2022-10-29T21:08:53.921Z,25.67
2022-10-29T21:11:23.992Z,22.63
2022-10-29T21:13:52.517Z,23.52
2022-10-29T21:16:24.307Z,23.85
2022-10-29T21:18:55.881Z,20.42
2022-10-29T21:21:26.441Z,31.10
2022-10-29T21:23:55.080Z,24.92
2022-10-29T21:26:26.878Z,21.48
2022-10-29T21:28:55.986Z,23.35
2022-10-29T21:31:25.294Z,23.60
2022-10-29T21:33:54.637Z,21.88
2022-10-29T21:36:25.052Z,37.85
2022-10-29T21:38:53.479Z,21.95
2022-10-29T21:41:21.765Z,19.27
2022-10-29T21:43:50.089Z,23.73
2022-10-29T21:46:18.339Z,26.73
2022-10-29T21:48:46.652Z,22.50
2022-10-29T21:51:17.167Z,17.42
2022-10-29T21:53:46.878Z,22.35
2022-10-29T21:56:16.569Z,21.92
2022-10-29T21:58:45.219Z,21.58
2022-10-29T22:01:15.770Z,22.30
2022-10-29T22:03:46.182Z,26.00
2022-10-29T22:06:16.825Z,26.92
2022-10-29T22:11:16.960Z,22.55
2022-10-29T22:13:45.416Z,25.60
2022-10-29T22:16:13.889Z,20.23
2022-10-29T22:18:42.620Z,22.42
2022-10-29T22:21:14.892Z,18.63
2022-10-29T22:23:46.232Z,22.30
2022-10-29T22:26:17.403Z,21.25
2022-10-29T22:28:47.084Z,19.40
2022-10-29T22:31:16.969Z,25.40
2022-10-29T22:33:45.875Z,21.48
2022-10-29T22:36:16.359Z,22.88
2022-10-29T22:38:46.050Z,24.83
2022-10-29T22:41:16.887Z,20.00
2022-10-29T22:43:45.289Z,20.77
2022-10-29T22:46:15.683Z,22.80
2022-10-29T22:48:44.366Z,26.40
2022-10-29T22:51:15.486Z,25.45
2022-10-29T22:53:44.314Z,24.88
2022-10-29T22:56:14.988Z,21.20
2022-10-29T23:01:16.500Z,24.27
2022-10-29T23:03:46.040Z,21.20
2022-10-29T23:06:19.355Z,23.55
2022-10-29T23:08:48.944Z,20.92
2022-10-29T23:11:21.386Z,30.08
2022-10-29T23:13:51.420Z,31.73
2022-10-29T23:16:20.465Z,28.67
2022-10-29T23:18:50.421Z,22.38
2022-10-29T23:21:19.677Z,25.15
2022-10-29T23:23:49.770Z,25.40
2022-10-29T23:26:21.465Z,25.02
2022-10-29T23:28:50.353Z,25.52
2022-10-29T23:31:21.092Z,32.97
2022-10-29T23:33:51.763Z,28.67
2022-10-29T23:38:51.211Z,24.85
2022-10-29T23:41:20.876Z,26.02
2022-10-29T23:43:49.177Z,24.67
2022-10-29T23:46:17.564Z,26.25
2022-10-29T23:48:45.995Z,23.20
2022-10-29T23:51:14.280Z,20.08
2022-10-29T23:53:42.730Z,22.95
2022-10-29T23:56:11.084Z,27.10
2022-10-29T23:58:40.890Z,25.80
